Time;durP1;ratioP1;P1;durP2;ratioP2;P2;SDS_P1;SDS_P2;PMS_P1;PMS_P2;Temp;Humidity;BMP_temperature;BMP_pressure;BME280_temperature;BME280_humidity;BME280_pressure;Samples;Min_cycle;Max_cycle;Signal;HPM_P1;HPM_P2
2023/04/03 00:00:10;;;;;;;0.50;0.50;;;3.20;99.90;;;;;;5094064;28;20075;-78
2023/04/03 00:02:36;;;;;;;0.60;0.60;;;3.20;99.90;;;;;;5093998;28;20044;-78
2023/04/03 00:05:01;;;;;;;0.50;0.50;;;3.30;99.90;;;;;;5126609;27;20044;-79
2023/04/03 00:07:27;;;;;;;0.60;0.60;;;3.20;99.90;;;;;;5094510;28;20422;-79
2023/04/03 00:09:53;;;;;;;0.60;0.60;;;3.20;99.90;;;;;;5094168;28;20450;-79
2023/04/03 00:12:18;;;;;;;0.47;0.47;;;3.20;99.90;;;;;;5094170;28;20055;-78
2023/04/03 00:14:44;;;;;;;0.50;0.50;;;3.20;99.90;;;;;;5092609;28;20482;-79
2023/04/03 00:17:10;;;;;;;0.43;0.43;;;3.30;99.90;;;;;;5075774;28;20043;-79
2023/04/03 00:19:35;;;;;;;0.50;0.50;;;3.20;99.90;;;;;;5093782;28;20043;-78
2023/04/03 00:22:01;;;;;;;0.65;0.65;;;3.20;99.90;;;;;;5092060;28;20500;-79
2023/04/03 00:24:27;;;;;;;0.50;0.50;;;3.20;99.90;;;;;;5092569;28;20043;-78
2023/04/03 00:26:52;;;;;;;0.50;0.50;;;3.10;99.90;;;;;;5092379;28;20476;-78
2023/04/03 00:29:18;;;;;;;0.52;0.50;;;3.10;99.90;;;;;;5092124;28;20496;-78
2023/04/03 00:31:44;;;;;;;0.73;0.50;;;3.10;99.90;;;;;;5092379;28;20117;-78
2023/04/03 00:34:09;;;;;;;0.60;0.60;;;3.00;99.90;;;;;;5092356;28;20094;-78
2023/04/03 00:36:35;;;;;;;0.43;0.43;;;2.80;99.90;;;;;;5093738;28;20451;-79
2023/04/03 00:39:01;;;;;;;0.40;0.40;;;2.70;99.90;;;;;;5092029;28;20084;-78
2023/04/03 00:41:26;;;;;;;0.60;0.60;;;2.60;99.90;;;;;;5093597;28;20032;-78
2023/04/03 00:43:52;;;;;;;0.60;0.60;;;2.40;99.90;;;;;;5093626;28;20377;-78
2023/04/03 00:46:18;;;;;;;0.70;0.70;;;2.30;99.90;;;;;;5126181;28;20040;-78
2023/04/03 00:48:49;;;;;;;0.60;0.50;;;2.20;99.90;;;;;;5091992;28;20476;-78
2023/04/03 00:51:19;;;;;;;0.55;0.55;;;2.10;99.90;;;;;;5092115;28;20571;-78
2023/04/03 00:53:54;;;;;;;0.60;0.60;;;1.80;99.90;;;;;;5093614;28;20032;-79
2023/04/03 00:56:23;;;;;;;0.55;0.55;;;1.70;99.90;;;;;;5093818;28;20076;-79
2023/04/03 00:58:54;;;;;;;0.93;0.50;;;1.60;99.90;;;;;;5093483;28;20039;-78
2023/04/03 01:01:23;;;;;;;0.50;0.50;;;1.50;99.90;;;;;;5093386;28;20040;-78
2023/04/03 01:03:50;;;;;;;0.82;0.65;;;1.50;99.90;;;;;;5091832;28;20039;-78
2023/04/03 01:06:18;;;;;;;0.60;0.60;;;1.50;99.90;;;;;;5092103;28;20387;-78
2023/04/03 01:08:46;;;;;;;0.63;0.63;;;1.40;99.90;;;;;;5093376;28;20032;-78
2023/04/03 01:11:12;;;;;;;0.60;0.60;;;1.30;99.90;;;;;;5093350;28;20040;-78
2023/04/03 01:13:37;;;;;;;0.65;0.65;;;1.20;99.90;;;;;;5091760;28;20043;-78
2023/04/03 01:16:05;;;;;;;0.60;0.60;;;1.10;99.90;;;;;;5092003;28;20044;-78
2023/04/03 01:18:32;;;;;;;0.70;0.70;;;1.00;99.90;;;;;;5093317;28;20063;-78
2023/04/03 01:21:30;;;;;;;0.63;0.63;;;1.00;99.90;;;;;;5092904;28;20484;-78
2023/04/03 01:24:05;;;;;;;0.60;0.60;;;1.00;99.90;;;;;;5086212;28;20054;-78
2023/04/03 01:26:32;;;;;;;0.60;0.60;;;0.90;99.90;;;;;;5091949;28;20043;-78
2023/04/03 01:28:59;;;;;;;0.63;0.63;;;0.90;99.90;;;;;;5093299;28;20040;-78
2023/04/03 01:31:30;;;;;;;0.60;0.60;;;0.70;99.90;;;;;;5092830;28;20040;-78
2023/04/03 01:33:55;;;;;;;0.70;0.70;;;0.70;99.90;;;;;;5093234;28;20040;-79
2023/04/03 01:36:25;;;;;;;0.70;0.70;;;0.70;99.90;;;;;;5093282;28;20039;-79
2023/04/03 01:38:52;;;;;;;0.70;0.70;;;0.60;99.90;;;;;;5092871;28;20435;-79
2023/04/03 01:41:18;;;;;;;0.60;0.60;;;0.60;99.90;;;;;;5096786;28;20399;-78
2023/04/03 01:43:44;;;;;;;0.60;0.60;;;0.50;99.90;;;;;;5096684;28;20036;-78
2023/04/03 01:46:10;;;;;;;0.60;0.60;;;0.40;99.90;;;;;;5096656;28;20127;-78
2023/04/03 01:48:35;;;;;;;0.70;0.70;;;0.30;99.90;;;;;;5097363;28;20032;-78
2023/04/03 01:51:01;;;;;;;0.70;0.70;;;0.30;99.90;;;;;;5095042;28;20043;-78
2023/04/03 01:53:26;;;;;;;0.60;0.60;;;0.30;99.90;;;;;;5096242;28;20495;-78
2023/04/03 01:55:52;;;;;;;0.73;0.73;;;0.20;99.90;;;;;;5096121;28;20082;-78
2023/04/03 01:58:18;;;;;;;0.70;0.70;;;0.30;99.90;;;;;;5096463;28;20040;-79
2023/04/03 02:00:44;;;;;;;0.60;0.60;;;0.20;99.90;;;;;;5094842;28;20042;-78
2023/04/03 02:03:09;;;;;;;0.70;0.70;;;0.20;99.90;;;;;;5094742;28;20048;-78
2023/04/03 02:05:35;;;;;;;0.70;0.70;;;0.10;99.90;;;;;;5095071;28;20549;-78
2023/04/03 02:08:00;;;;;;;0.70;0.70;;;0.20;99.90;;;;;;5096218;28;20125;-78
2023/04/03 02:10:26;;;;;;;0.73;0.70;;;0.10;99.90;;;;;;5096234;28;20075;-78
2023/04/03 02:12:52;;;;;;;0.70;0.70;;;0.10;99.90;;;;;;5095801;28;20044;-78
2023/04/03 02:15:18;;;;;;;0.70;0.70;;;0.20;99.90;;;;;;5096093;28;20044;-78
2023/04/03 02:17:44;;;;;;;0.70;0.70;;;0.20;99.90;;;;;;5095957;28;20082;-78
2023/04/03 02:20:10;;;;;;;0.63;0.63;;;0.20;99.90;;;;;;5095735;28;20044;-78
2023/04/03 02:22:36;;;;;;;0.70;0.70;;;0.20;99.90;;;;;;5094396;28;20044;-78
2023/04/03 02:25:01;;;;;;;0.70;0.70;;;0.10;99.90;;;;;;5095971;28;20040;-78
2023/04/03 02:27:27;;;;;;;0.80;0.80;;;0.10;99.90;;;;;;5095703;28;20067;-78
2023/04/03 02:29:53;;;;;;;0.70;0.70;;;0.10;99.90;;;;;;5094330;28;20396;-78
2023/04/03 02:32:18;;;;;;;0.80;0.80;;;0.10;99.90;;;;;;5095830;28;20044;-78
2023/04/03 02:34:44;;;;;;;0.60;0.60;;;0.00;99.90;;;;;;5095840;28;20048;-78
2023/04/03 02:37:10;;;;;;;0.80;0.80;;;0.10;99.90;;;;;;5094017;28;20059;-78
2023/04/03 02:39:35;;;;;;;0.77;0.70;;;0.00;99.90;;;;;;5094234;28;20062;-78
2023/04/03 02:42:01;;;;;;;0.70;0.70;;;-0.10;99.90;;;;;;5094198;28;20044;-78
2023/04/03 02:44:27;;;;;;;0.73;0.73;;;-0.10;99.90;;;;;;5095616;28;20036;-78
2023/04/03 02:46:52;;;;;;;0.63;0.63;;;-0.10;99.90;;;;;;5095590;28;20082;-78
2023/04/03 02:49:18;;;;;;;0.75;0.70;;;-0.10;99.90;;;;;;5093889;28;20044;-78
2023/04/03 02:51:44;;;;;;;0.90;0.90;;;-0.10;99.90;;;;;;5126933;27;20040;-78
2023/04/03 02:54:09;;;;;;;0.73;0.73;;;-0.10;99.90;;;;;;5094111;28;20075;-78
2023/04/03 02:56:35;;;;;;;0.73;0.70;;;-0.10;99.90;;;;;;5093875;28;20388;-78
2023/04/03 02:59:01;;;;;;;0.57;0.57;;;-0.10;99.90;;;;;;5093691;28;20047;-78
2023/04/03 03:01:31;;;;;;;1.27;0.80;;;0.00;99.90;;;;;;5127954;27;20440;-78
2023/04/03 03:03:57;;;;;;;0.70;0.70;;;0.10;99.90;;;;;;5093660;28;20047;-78
2023/04/03 03:06:23;;;;;;;1.20;1.10;;;0.20;99.90;;;;;;5093648;28;20032;-78
2023/04/03 03:08:49;;;;;;;0.77;0.77;;;0.20;99.90;;;;;;5093498;28;20048;-78
2023/04/03 03:11:15;;;;;;;0.70;0.70;;;0.20;99.90;;;;;;5094929;28;20063;-78
2023/04/03 03:13:40;;;;;;;0.60;0.60;;;0.00;99.90;;;;;;5093423;28;20039;-78
2023/04/03 03:16:07;;;;;;;0.80;0.80;;;-0.20;99.90;;;;;;5093690;28;20176;-78
2023/04/03 03:18:33;;;;;;;0.70;0.70;;;-0.30;99.90;;;;;;5093409;28;20125;-78
2023/04/03 03:21:01;;;;;;;0.60;0.60;;;-0.20;99.90;;;;;;5093227;28;20040;-78
2023/04/03 03:23:28;;;;;;;0.70;0.70;;;-0.20;99.90;;;;;;5093261;28;20047;-79
2023/04/03 03:25:59;;;;;;;0.80;0.80;;;-0.20;99.90;;;;;;5093545;28;20051;-78
2023/04/03 03:28:25;;;;;;;0.63;0.63;;;-0.20;99.90;;;;;;5093309;28;20480;-78
2023/04/03 03:30:51;;;;;;;0.80;0.80;;;-0.20;99.90;;;;;;5093373;28;20044;-78
2023/04/03 03:33:17;;;;;;;0.70;0.70;;;-0.30;99.90;;;;;;5093065;28;20040;-78
2023/04/03 03:35:43;;;;;;;0.80;0.80;;;-0.30;99.90;;;;;;5093218;28;20052;-78
2023/04/03 03:38:09;;;;;;;0.57;0.57;;;-0.30;99.90;;;;;;5093981;28;20071;-78
2023/04/03 03:40:35;;;;;;;0.77;0.77;;;-0.60;99.90;;;;;;5094465;28;20048;-78
2023/04/03 03:43:00;;;;;;;0.75;0.75;;;-0.60;99.90;;;;;;5094331;28;20491;-78
2023/04/03 03:45:26;;;;;;;0.80;0.80;;;-0.60;99.90;;;;;;5094144;28;20078;-78
2023/04/03 03:47:52;;;;;;;0.93;0.90;;;-0.60;99.90;;;;;;5094033;28;20436;-70
2023/04/03 03:50:17;;;;;;;0.70;0.70;;;-0.50;99.90;;;;;;5094326;28;20047;-78
2023/04/03 03:52:44;;;;;;;0.90;0.90;;;-0.50;99.90;;;;;;5092699;28;20048;-78
2023/04/03 03:55:10;;;;;;;0.85;0.85;;;-0.50;99.90;;;;;;5093878;28;20403;-78
2023/04/03 03:57:36;;;;;;;1.33;0.90;;;-0.50;99.90;;;;;;5094178;28;20042;-78
2023/04/03 04:00:02;;;;;;;1.13;0.90;;;-0.40;99.90;;;;;;5075728;28;20517;-78
2023/04/03 04:02:28;;;;;;;0.80;0.80;;;-0.50;99.90;;;;;;5126331;27;20089;-78
2023/04/03 04:04:53;;;;;;;1.15;1.08;;;-0.50;99.90;;;;;;5094084;28;20111;-78
2023/04/03 04:07:19;;;;;;;0.98;0.93;;;-0.50;99.90;;;;;;5092843;28;20125;-78
2023/04/03 04:09:45;;;;;;;0.80;0.77;;;-0.60;99.90;;;;;;5092477;28;20043;-77
2023/04/03 04:12:10;;;;;;;0.90;0.90;;;-0.70;99.90;;;;;;5093981;28;20373;-78
2023/04/03 04:14:36;;;;;;;1.00;0.90;;;-0.80;99.90;;;;;;5094002;28;20040;-78
2023/04/03 04:17:02;;;;;;;0.95;0.88;;;-0.90;99.90;;;;;;5092289;28;20079;-78
2023/04/03 04:19:28;;;;;;;1.00;1.00;;;-0.90;99.90;;;;;;5092369;28;20040;-77
2023/04/03 04:21:53;;;;;;;1.10;1.00;;;-0.90;99.90;;;;;;5126605;27;20047;-78
2023/04/03 04:24:19;;;;;;;1.25;1.10;;;-0.90;99.90;;;;;;5093835;28;20522;-78
2023/04/03 04:26:45;;;;;;;1.13;1.02;;;-1.00;99.90;;;;;;5092512;28;20075;-78
2023/04/03 04:29:11;;;;;;;1.20;1.10;;;-0.90;99.90;;;;;;5092132;28;20036;-77
2023/04/03 04:31:36;;;;;;;0.95;0.90;;;-0.80;99.90;;;;;;5092198;28;20043;-77
2023/04/03 04:34:02;;;;;;;0.88;0.82;;;-0.80;99.90;;;;;;5092560;28;20090;-77
2023/04/03 04:36:28;;;;;;;0.80;0.80;;;-0.90;99.90;;;;;;5092455;28;20040;-81
2023/04/03 04:38:53;;;;;;;1.20;0.95;;;-1.00;99.90;;;;;;5092046;28;20411;-82
2023/04/03 04:41:22;;;;;;;0.90;0.90;;;-1.00;99.90;;;;;;5092060;28;20097;-84
2023/04/03 04:43:51;;;;;;;1.15;1.00;;;-1.00;99.90;;;;;;5093341;28;20484;-78
2023/04/03 04:46:18;;;;;;;1.38;1.00;;;-1.10;99.90;;;;;;5093630;28;20222;-75
2023/04/03 04:48:44;;;;;;;1.05;1.00;;;-1.00;99.90;;;;;;5092354;28;20040;-75
2023/04/03 04:51:10;;;;;;;1.08;1.00;;;-1.00;99.90;;;;;;5091942;28;20040;-75
2023/04/03 04:53:36;;;;;;;1.00;0.90;;;-0.80;99.90;;;;;;5093535;28;20044;-76
2023/04/03 04:56:02;;;;;;;1.40;1.15;;;-0.80;99.90;;;;;;5093242;28;20055;-75
2023/04/03 04:58:27;;;;;;;1.02;1.02;;;-0.70;99.90;;;;;;5125966;28;20484;-77
2023/04/03 05:01:07;;;;;;;1.08;1.00;;;-0.50;99.90;;;;;;5093402;28;20047;-76
2023/04/03 05:03:33;;;;;;;0.95;0.90;;;-0.50;99.90;;;;;;5093498;28;20123;-74
2023/04/03 05:05:59;;;;;;;1.10;1.00;;;-0.60;99.90;;;;;;5093323;28;20067;-75
2023/04/03 05:08:25;;;;;;;1.02;0.93;;;-0.60;99.90;;;;;;5092090;28;20032;-74
2023/04/03 05:10:51;;;;;;;0.85;0.85;;;-0.70;99.90;;;;;;5093303;28;20043;-74
2023/04/03 05:13:17;;;;;;;1.02;1.00;;;-0.70;99.90;;;;;;5093274;28;20044;-75
2023/04/03 05:15:43;;;;;;;0.98;0.90;;;-0.80;99.90;;;;;;5094859;28;20051;-76
2023/04/03 05:18:08;;;;;;;0.90;0.90;;;-0.90;99.90;;;;;;5095714;28;20467;-70
2023/04/03 05:20:34;;;;;;;1.02;0.95;;;-1.00;99.90;;;;;;5097089;28;20036;-79
2023/04/03 05:23:00;;;;;;;1.20;1.10;;;-1.00;99.90;;;;;;5095544;28;20092;-76
2023/04/03 05:25:26;;;;;;;1.13;1.05;;;-0.90;99.90;;;;;;5095638;28;20048;-77
2023/04/03 05:27:51;;;;;;;1.10;1.10;;;-1.00;99.90;;;;;;5095814;28;20043;-78
2023/04/03 05:30:18;;;;;;;1.05;0.90;;;-0.90;99.90;;;;;;5097105;28;20464;-77
2023/04/03 05:32:43;;;;;;;1.02;1.02;;;-0.90;99.90;;;;;;5095723;28;20400;-78
2023/04/03 05:35:09;;;;;;;1.20;1.10;;;-0.90;99.90;;;;;;5096669;28;20044;-77
2023/04/03 05:37:36;;;;;;;1.13;1.10;;;-0.80;99.90;;;;;;5078201;28;20055;-78
2023/04/03 05:40:02;;;;;;;0.90;0.90;;;-0.90;99.90;;;;;;5095542;28;20071;-81
2023/04/03 05:42:28;;;;;;;1.00;1.00;;;-0.90;99.90;;;;;;5078488;28;20119;-80
2023/04/03 05:44:54;;;;;;;1.08;0.90;;;-0.90;99.90;;;;;;5096633;28;20083;-81
2023/04/03 05:47:19;;;;;;;0.93;0.93;;;-0.80;99.90;;;;;;5095162;28;20047;-85
2023/04/03 05:49:45;;;;;;;1.48;1.20;;;-0.80;99.90;;;;;;5095201;28;20036;-80
2023/04/03 05:52:20;;;;;;;1.00;1.00;;;-0.60;99.90;;;;;;5095893;28;20047;-85
2023/04/03 05:54:47;;;;;;;1.65;1.55;;;-0.60;99.90;;;;;;5078420;28;20097;-86
2023/04/03 05:57:15;;;;;;;1.20;1.20;;;-0.60;99.90;;;;;;5078398;28;20097;-86
2023/04/03 05:59:42;;;;;;;1.75;1.58;;;-0.60;99.90;;;;;;5095656;28;20036;-86
2023/04/03 06:02:13;;;;;;;1.90;1.80;;;-0.50;99.90;;;;;;5095141;28;20040;-86
2023/04/03 06:04:39;;;;;;;1.33;1.23;;;-0.40;99.90;;;;;;5095704;28;20102;-86
2023/04/03 06:07:05;;;;;;;1.73;1.60;;;-0.30;99.90;;;;;;5095444;28;20047;-86
2023/04/03 06:09:31;;;;;;;1.30;1.20;;;-0.20;99.90;;;;;;5095332;28;20476;-89
2023/04/03 06:12:00;;;;;;;1.67;1.58;;;-0.20;99.90;;;;;;5078882;28;20043;-88
2023/04/03 06:14:26;;;;;;;4.25;3.95;;;-0.10;99.90;;;;;;5095637;28;20040;-87
2023/04/03 06:16:53;;;;;;;1.70;1.60;;;0.00;99.90;;;;;;5096764;28;20051;-88
2023/04/03 06:19:20;;;;;;;1.40;1.30;;;0.10;99.90;;;;;;5079002;28;20491;-88
2023/04/03 06:21:47;;;;;;;1.70;1.60;;;0.20;99.90;;;;;;5096761;28;20036;-88
2023/04/03 06:24:15;;;;;;;1.50;1.40;;;0.40;99.90;;;;;;5095763;28;20067;-87
2023/04/03 06:26:41;;;;;;;1.52;1.40;;;0.50;99.90;;;;;;5078356;28;20475;-88
2023/04/03 06:29:07;;;;;;;1.30;1.15;;;0.50;99.90;;;;;;5095798;28;20051;-88
2023/04/03 06:31:33;;;;;;;1.30;1.20;;;0.60;99.90;;;;;;5078532;28;20044;-88
2023/04/03 06:33:58;;;;;;;1.60;1.50;;;0.70;99.90;;;;;;5096785;28;20048;-89
2023/04/03 06:36:25;;;;;;;1.45;1.20;;;0.80;99.90;;;;;;5095444;28;20063;-89
2023/04/03 06:38:51;;;;;;;1.45;1.35;;;0.80;99.90;;;;;;5094989;28;20104;-88
2023/04/03 06:41:17;;;;;;;1.60;1.40;;;0.90;99.90;;;;;;5095049;28;20081;-87
2023/04/03 06:43:44;;;;;;;1.17;1.10;;;1.10;99.90;;;;;;5095067;28;20395;-88
2023/04/03 06:46:18;;;;;;;1.20;1.10;;;1.10;99.90;;;;;;5077978;28;20040;-87
2023/04/03 06:48:44;;;;;;;1.40;1.30;;;1.30;99.90;;;;;;5095012;28;20043;-88
2023/04/03 06:51:24;;;;;;;1.33;1.20;;;1.40;99.90;;;;;;5095179;28;20036;-87
2023/04/03 06:53:51;;;;;;;1.30;1.20;;;1.40;99.90;;;;;;5094586;28;20039;-86
2023/04/03 06:56:18;;;;;;;1.40;1.30;;;1.60;99.90;;;;;;5077924;28;20402;-86
2023/04/03 06:58:44;;;;;;;1.20;1.10;;;1.60;99.90;;;;;;5077690;28;20093;-87
2023/04/03 07:01:12;;;;;;;1.38;1.27;;;1.70;99.90;;;;;;5094476;28;20054;-86
2023/04/03 07:03:39;;;;;;;0.95;0.95;;;1.70;99.90;;;;;;5077686;28;20524;-88
2023/04/03 07:06:06;;;;;;;1.17;1.08;;;1.80;99.90;;;;;;5094379;28;20066;-86
2023/04/03 07:08:33;;;;;;;1.23;1.10;;;1.90;99.90;;;;;;5077472;28;20032;-88
2023/04/03 07:10:59;;;;;;;1.77;1.00;;;2.00;99.90;;;;;;5094353;28;20497;-88
2023/04/03 07:13:25;;;;;;;1.48;1.27;;;2.00;99.90;;;;;;5077908;28;20096;-89
2023/04/03 07:15:51;;;;;;;1.10;1.10;;;2.10;99.90;;;;;;5077692;28;20040;-88
2023/04/03 07:18:19;;;;;;;0.93;0.93;;;2.10;99.90;;;;;;5095480;28;20123;-86
2023/04/03 07:20:45;;;;;;;1.52;1.20;;;2.20;99.90;;;;;;5077161;28;20035;-88
2023/04/03 07:23:11;;;;;;;1.10;1.00;;;2.30;99.90;;;;;;5094645;28;20044;-87
2023/04/03 07:25:41;;;;;;;1.20;1.10;;;2.30;99.90;;;;;;5094766;28;20092;-87
2023/04/03 07:28:08;;;;;;;;;;;2.40;99.90;;;;;;5096308;28;20032;-88
2023/04/03 07:30:33;;;;;;;0.98;0.90;;;2.50;99.90;;;;;;5077329;28;19970;-87
2023/04/03 07:32:59;;;;;;;1.10;1.05;;;2.60;99.90;;;;;;5095356;28;20078;-87
2023/04/03 07:35:24;;;;;;;1.02;1.00;;;2.60;99.90;;;;;;5077143;28;20089;-87
2023/04/03 07:37:50;;;;;;;1.20;1.00;;;2.70;99.90;;;;;;5076557;28;20408;-89
2023/04/03 07:40:16;;;;;;;0.82;0.77;;;2.80;99.90;;;;;;5094111;28;20048;-86
2023/04/03 07:42:41;;;;;;;0.90;0.90;;;3.00;99.90;;;;;;5094049;28;20047;-88
2023/04/03 07:45:08;;;;;;;1.33;1.17;;;3.00;99.90;;;;;;5077110;28;20036;-87
2023/04/03 07:47:33;;;;;;;1.02;0.98;;;3.10;99.90;;;;;;5094238;28;20047;-86
2023/04/03 07:49:59;;;;;;;0.95;0.90;;;3.20;99.90;;;;;;5093042;28;20040;-85
2023/04/03 07:52:25;;;;;;;1.02;0.90;;;3.20;99.90;;;;;;5092899;28;20369;-85
2023/04/03 07:54:50;;;;;;;0.90;0.90;;;3.30;99.90;;;;;;5094289;28;20047;-86
2023/04/03 07:57:16;;;;;;;0.80;0.80;;;3.30;99.90;;;;;;5093313;28;20036;-87
2023/04/03 07:59:42;;;;;;;0.70;0.70;;;3.30;99.90;;;;;;5076474;28;20036;-85
2023/04/03 08:02:12;;;;;;;1.05;1.00;;;3.40;99.90;;;;;;5092985;28;20048;-87
2023/04/03 08:04:38;;;;;;;1.10;1.00;;;3.40;99.90;;;;;;5093457;28;20115;-87
2023/04/03 08:07:04;;;;;;;1.08;0.98;;;3.50;99.90;;;;;;5093958;28;20064;-88
2023/04/03 08:09:31;;;;;;;0.70;0.70;;;3.50;99.90;;;;;;5094533;28;20096;-88
2023/04/03 08:11:57;;;;;;;1.55;0.98;;;3.60;99.90;;;;;;5093428;28;20040;-86
2023/04/03 08:14:23;;;;;;;0.80;0.80;;;3.60;99.90;;;;;;5076267;28;20044;-86
2023/04/03 08:16:49;;;;;;;0.88;0.77;;;3.70;99.90;;;;;;5093216;28;20108;-86
2023/04/03 08:19:17;;;;;;;0.80;0.80;;;3.80;99.90;;;;;;5092931;28;20048;-87
2023/04/03 08:21:44;;;;;;;1.23;0.88;;;3.80;99.90;;;;;;5094024;28;20044;-85
2023/04/03 08:24:09;;;;;;;0.95;0.80;;;3.90;99.90;;;;;;5076415;28;20036;-88
2023/04/03 08:26:36;;;;;;;1.45;0.80;;;4.00;99.90;;;;;;5076211;28;20564;-87
2023/04/03 08:29:02;;;;;;;0.70;0.70;;;4.00;99.90;;;;;;5094534;28;20486;-86
2023/04/03 08:31:28;;;;;;;0.88;0.82;;;4.00;99.90;;;;;;5094238;28;20114;-89
2023/04/03 08:33:54;;;;;;;0.63;0.60;;;4.10;99.90;;;;;;5076353;28;20133;-88
2023/04/03 08:36:22;;;;;;;0.80;0.80;;;4.20;99.90;;;;;;5093995;28;20610;-89
2023/04/03 08:38:49;;;;;;;0.98;0.80;;;4.20;99.90;;;;;;5075822;28;20091;-87
2023/04/03 08:41:30;;;;;;;1.17;0.90;;;4.30;99.90;;;;;;5093106;28;20040;-87
2023/04/03 08:44:33;;;;;;;0.70;0.70;;;4.40;99.90;;;;;;5094185;28;20040;-86
2023/04/03 08:47:20;;;;;;;0.80;0.75;;;4.50;99.90;;;;;;5075428;28;20036;-86
2023/04/03 08:49:53;;;;;;;0.82;0.82;;;4.50;99.90;;;;;;5077201;28;20040;-86
2023/04/03 08:52:40;;;;;;;0.60;0.60;;;4.60;99.90;;;;;;5080120;28;20035;-86
2023/04/03 08:55:32;;;;;;;0.70;0.70;;;4.60;99.90;;;;;;5079352;28;20055;-83
2023/04/03 08:58:20;;;;;;;0.80;0.80;;;4.70;99.90;;;;;;5097200;28;20032;-87
2023/04/03 09:00:48;;;;;;;1.40;1.00;;;4.70;99.90;;;;;;5096684;28;20044;-86
2023/04/03 09:03:16;;;;;;;1.00;0.73;;;4.80;99.90;;;;;;5097693;28;20036;-86
2023/04/03 09:06:06;;;;;;;0.60;0.60;;;5.00;99.90;;;;;;5096718;28;20039;-85
2023/04/03 09:08:42;;;;;;;0.80;0.80;;;5.10;99.90;;;;;;5096871;28;20425;-86
2023/04/03 09:11:33;;;;;;;0.75;0.75;;;5.10;99.90;;;;;;5097731;28;20043;-88
2023/04/03 09:14:28;;;;;;;0.60;0.60;;;5.20;99.90;;;;;;5080271;28;20063;-89
2023/04/03 09:17:02;;;;;;;0.63;0.60;;;5.30;99.90;;;;;;5076292;28;20073;-90
2023/04/03 09:19:48;;;;;;;0.90;0.77;;;5.30;99.90;;;;;;5097456;28;20040;-88
2023/04/03 09:22:17;;;;;;;0.70;0.70;;;5.40;99.90;;;;;;5079391;28;20156;-87
2023/04/03 09:24:59;;;;;;;1.23;0.80;;;5.50;99.90;;;;;;5096360;28;20032;-85
2023/04/03 09:27:25;;;;;;;0.70;0.70;;;5.50;99.90;;;;;;5096390;28;20331;-88
2023/04/03 09:29:54;;;;;;;0.60;0.60;;;5.60;99.90;;;;;;5096849;28;20051;-89
2023/04/03 09:32:28;;;;;;;0.60;0.60;;;5.60;99.90;;;;;;5079830;28;20487;-88
2023/04/03 09:34:57;;;;;;;0.60;0.60;;;5.70;99.90;;;;;;5096463;28;20066;-86
2023/04/03 09:37:47;;;;;;;1.58;1.30;;;5.80;99.90;;;;;;5079074;28;20048;-86
2023/04/03 09:40:48;;;;;;;0.82;0.82;;;5.90;99.80;;;;;;5095978;28;20080;-88
2023/04/03 09:43:17;;;;;;;0.60;0.60;;;6.00;99.90;;;;;;5095956;28;20435;-87
2023/04/03 09:45:45;;;;;;;0.70;0.70;;;6.00;99.90;;;;;;5079421;28;20032;-88
2023/04/03 09:48:14;;;;;;;0.60;0.60;;;6.10;99.90;;;;;;5078823;28;20036;-86
2023/04/03 09:50:58;;;;;;;0.68;0.68;;;6.10;99.60;;;;;;5096802;28;20052;-84
2023/04/03 09:53:44;;;;;;;0.60;0.60;;;6.20;99.30;;;;;;5078834;28;20491;-86
2023/04/03 09:56:16;;;;;;;0.50;0.50;;;6.30;98.40;;;;;;5078538;28;20040;-87
2023/04/03 09:58:50;;;;;;;0.50;0.50;;;6.30;98.40;;;;;;5078833;28;20040;-87
2023/04/03 10:01:35;;;;;;;0.60;0.50;;;6.40;97.40;;;;;;5078405;28;20031;-87
2023/04/03 10:04:15;;;;;;;0.60;0.60;;;6.50;95.80;;;;;;5096808;28;20503;-89
2023/04/03 10:06:46;;;;;;;0.65;0.65;;;6.60;95.60;;;;;;5095896;28;20051;-87
2023/04/03 10:09:15;;;;;;;0.80;0.70;;;6.60;95.60;;;;;;5095830;28;20028;-86
2023/04/03 10:12:01;;;;;;;0.55;0.55;;;6.70;95.20;;;;;;5078160;28;20040;-88
2023/04/03 10:14:28;;;;;;;0.50;0.50;;;6.80;96.40;;;;;;5078167;28;20166;-82
2023/04/03 10:17:12;;;;;;;0.50;0.50;;;6.80;94.50;;;;;;5077979;28;20092;-85
2023/04/03 10:19:51;;;;;;;0.63;0.50;;;6.80;95.00;;;;;;5094969;28;20476;-85
2023/04/03 10:22:32;;;;;;;0.50;0.50;;;7.00;95.10;;;;;;5094506;28;20044;-81
2023/04/03 10:25:14;;;;;;;0.75;0.63;;;7.00;94.40;;;;;;5096118;28;20043;-85
2023/04/03 10:27:49;;;;;;;0.55;0.55;;;7.10;94.70;;;;;;5078134;28;20391;-83
2023/04/03 10:30:41;;;;;;;0.80;0.65;;;7.10;94.40;;;;;;5094320;28;20044;-83
2023/04/03 10:33:24;;;;;;;0.60;0.60;;;7.10;95.80;;;;;;5078261;28;20075;-84
2023/04/03 10:36:11;;;;;;;1.08;0.63;;;7.30;95.10;;;;;;5095840;28;20134;-85
2023/04/03 10:38:44;;;;;;;0.50;0.50;;;7.30;94.00;;;;;;5093982;28;20056;-83
2023/04/03 10:41:34;;;;;;;0.55;0.50;;;7.30;93.00;;;;;;5095340;28;20039;-82
2023/04/03 10:44:19;;;;;;;0.93;0.50;;;7.30;94.50;;;;;;5094483;28;20040;-83
2023/04/03 10:46:49;;;;;;;0.50;0.50;;;7.50;93.90;;;;;;5095283;28;20515;-83
2023/04/03 10:49:33;;;;;;;;;;;7.50;93.30;;;;;;5094465;28;20043;-88
2023/04/03 10:52:21;;;;;;;0.50;0.50;;;7.50;94.10;;;;;;5077391;28;19920;-86
2023/04/03 10:54:52;;;;;;;0.60;0.60;;;7.50;93.50;;;;;;5078070;28;20452;-88
2023/04/03 10:57:19;;;;;;;0.73;0.60;;;7.60;92.70;;;;;;5094798;28;20040;-87
2023/04/03 10:59:57;;;;;;;0.75;0.55;;;7.60;92.10;;;;;;5077083;28;20040;-80
2023/04/03 11:02:28;;;;;;;0.50;0.50;;;7.70;92.60;;;;;;5076825;28;20047;-80
2023/04/03 11:05:09;;;;;;;0.65;0.65;;;7.70;92.90;;;;;;5076808;28;20039;-80
2023/04/03 11:07:47;;;;;;;0.60;0.60;;;7.80;93.00;;;;;;5093623;28;20040;-80
2023/04/03 11:10:37;;;;;;;0.60;0.60;;;7.90;92.40;;;;;;5095212;28;20032;-80
2023/04/03 11:13:12;;;;;;;1.02;0.73;;;7.90;91.30;;;;;;5075738;28;20089;-79
2023/04/03 11:15:39;;;;;;;0.43;0.43;;;8.00;92.40;;;;;;5095077;28;20046;-79
2023/04/03 11:18:17;;;;;;;0.43;0.40;;;8.00;92.50;;;;;;5076519;28;20120;-81
2023/04/03 11:20:50;;;;;;;0.70;0.68;;;8.10;91.30;;;;;;5076761;28;20036;-80
2023/04/03 11:23:21;;;;;;;0.98;0.60;;;8.10;91.20;;;;;;5076364;28;20044;-80
2023/04/03 11:25:52;;;;;;;0.50;0.50;;;8.20;91.70;;;;;;5093422;28;20047;-81
2023/04/03 11:28:18;;;;;;;0.52;0.52;;;8.30;91.50;;;;;;5093307;28;20036;-81
2023/04/03 11:31:06;;;;;;;0.50;0.50;;;8.30;90.80;;;;;;5076477;28;20046;-81
2023/04/03 11:33:41;;;;;;;0.50;0.50;;;8.40;90.90;;;;;;5094666;28;20044;-80
2023/04/03 11:36:19;;;;;;;0.50;0.50;;;8.50;90.60;;;;;;5094650;28;20491;-80
2023/04/03 11:38:47;;;;;;;0.50;0.50;;;8.50;90.70;;;;;;5092904;28;20067;-80
2023/04/03 11:41:14;;;;;;;0.50;0.50;;;8.70;91.30;;;;;;5092929;28;20128;-81
2023/04/03 11:43:57;;;;;;;1.25;0.60;;;8.80;91.50;;;;;;5092921;28;20568;-78
2023/04/03 11:46:52;;;;;;;0.50;0.50;;;8.80;88.70;;;;;;5092948;28;20044;-77
2023/04/03 11:50:12;;;;;;;0.57;0.52;;;8.90;90.20;;;;;;5093452;28;20360;-77
2023/04/03 11:52:38;;;;;;;0.50;0.50;;;9.00;90.30;;;;;;5038570;28;20044;-80
2023/04/03 11:55:22;;;;;;;0.50;0.50;;;9.10;90.40;;;;;;5055125;28;20071;-80
2023/04/03 11:58:00;;;;;;;1.55;0.60;;;9.10;90.80;;;;;;5038320;28;20036;-81
2023/04/03 12:00:46;;;;;;;0.50;0.50;;;9.10;89.50;;;;;;5055194;28;20071;-79
2023/04/03 12:03:27;;;;;;;0.80;0.65;;;9.20;90.00;;;;;;5054716;28;20043;-80
2023/04/03 12:06:04;;;;;;;0.60;0.50;;;9.30;90.00;;;;;;5054951;28;20041;-79
2023/04/03 12:08:33;;;;;;;0.52;0.52;;;9.40;89.30;;;;;;5054681;28;20504;-80
2023/04/03 12:11:10;;;;;;;0.50;0.50;;;9.50;89.20;;;;;;5054759;28;20032;-80
2023/04/03 12:13:53;;;;;;;0.50;0.50;;;9.50;88.50;;;;;;5054738;28;20044;-80
2023/04/03 12:16:37;;;;;;;0.50;0.50;;;9.60;84.70;;;;;;5054786;28;20051;-81
2023/04/03 12:19:14;;;;;;;1.05;0.50;;;9.70;86.50;;;;;;5054710;28;20048;-82
2023/04/03 12:21:46;;;;;;;0.60;0.60;;;9.70;84.30;;;;;;5037899;28;20044;-82
2023/04/03 12:24:20;;;;;;;0.60;0.60;;;9.80;85.20;;;;;;5054484;28;20044;-80
2023/04/03 12:27:19;;;;;;;0.52;0.52;;;9.80;85.50;;;;;;5074444;28;20044;-79
2023/04/03 12:30:13;;;;;;;0.43;0.43;;;9.90;86.70;;;;;;5093664;28;20553;-81
2023/04/03 12:33:11;;;;;;;0.52;0.52;;;10.10;86.10;;;;;;5093876;28;20044;-82
2023/04/03 12:35:43;;;;;;;0.30;0.30;;;10.10;83.00;;;;;;5083120;28;20055;-81
2023/04/03 12:38:41;;;;;;;0.50;0.50;;;10.30;82.60;;;;;;5091956;28;20071;-81
2023/04/03 12:41:36;;;;;;;0.60;0.60;;;10.40;85.90;;;;;;5093652;28;20032;-81
2023/04/03 12:44:27;;;;;;;0.63;0.50;;;10.50;86.50;;;;;;5092123;28;20040;-80
2023/04/03 12:46:53;;;;;;;0.52;0.52;;;10.70;86.40;;;;;;5092362;28;20113;-81
2023/04/03 12:49:42;;;;;;;0.50;0.50;;;10.80;81.90;;;;;;5092397;28;20044;-82
2023/04/03 12:52:19;;;;;;;0.50;0.50;;;10.90;81.40;;;;;;5091899;28;20040;-81
2023/04/03 12:54:46;;;;;;;0.40;0.40;;;10.90;83.00;;;;;;5094119;28;20075;-81
2023/04/03 12:57:24;;;;;;;0.50;0.50;;;11.00;83.80;;;;;;5092294;28;20082;-80
2023/04/03 12:59:50;;;;;;;0.55;0.55;;;11.10;84.40;;;;;;5092067;28;20044;-80
2023/04/03 13:02:23;;;;;;;0.50;0.40;;;11.20;85.20;;;;;;5075058;28;20097;-81
2023/04/03 13:04:50;;;;;;;0.43;0.43;;;11.30;77.20;;;;;;5075188;28;20071;-81
2023/04/03 13:07:34;;;;;;;0.50;0.50;;;11.40;78.90;;;;;;5091957;28;20547;-79
2023/04/03 13:10:20;;;;;;;0.63;0.60;;;11.60;80.10;;;;;;5093434;28;20086;-78
2023/04/03 13:12:47;;;;;;;0.40;0.40;;;11.70;80.30;;;;;;5093141;28;20052;-80